METAR Data
IDs: Format: Raw Decoded Include TAF

Data at: 1203 UTC 24 Jan 2021

METAR for:KCVO (Corvallis Muni, OR, US)
Text:KCVO 241156Z AUTO 16007KT 10SM OVC032 03/01 A2993 RMK AO2 SLP137 T00280011 10044 20028 58024
Temperature: 2.8°C ( 37°F)
Dewpoint: 1.1°C ( 34°F) [RH = 89%]
Pressure (altimeter):29.93 inches Hg (1013.6 mb) [Sea level pressure: 1013.7 mb]
Winds:from the SSE (160 degrees) at 8 MPH (7 knots; 3.6 m/s)
Visibility:10 or more sm (16+ km)
Ceiling:3200 feet AGL
Clouds: overcast cloud deck at 3200 feet AGL
QC Flag:automated observation with no human augmentation
Text:KCVO 241056Z AUTO 15005KT 10SM OVC034 03/02 A2997 RMK AO2 SLP149 T00280017
Temperature: 2.8°C ( 37°F)
Dewpoint: 1.7°C ( 35°F) [RH = 92%]
Pressure (altimeter):29.97 inches Hg (1015.0 mb) [Sea level pressure: 1014.9 mb]
Winds:from the SSE (150 degrees) at 6 MPH (5 knots; 2.6 m/s)
Visibility:10 or more sm (16+ km)
Ceiling:3400 feet AGL
Clouds: overcast cloud deck at 3400 feet AGL
QC Flag:automated observation with no human augmentation
Text:KCVO 240956Z AUTO 16006KT 10SM OVC038 03/02 A2999 RMK AO2 SLP156 T00330022
Temperature: 3.3°C ( 38°F)
Dewpoint: 2.2°C ( 36°F) [RH = 92%]
Pressure (altimeter):29.99 inches Hg (1015.7 mb) [Sea level pressure: 1015.6 mb]
Winds:from the SSE (160 degrees) at 7 MPH (6 knots; 3.1 m/s)
Visibility:10 or more sm (16+ km)
Ceiling:3800 feet AGL
Clouds: overcast cloud deck at 3800 feet AGL
QC Flag:automated observation with no human augmentation
Text:KCVO 240856Z AUTO 15005KT 10SM OVC036 03/03 A3000 RMK AO2 SLP162 T00330028 58018
Temperature: 3.3°C ( 38°F)
Dewpoint: 2.8°C ( 37°F) [RH = 97%]
Pressure (altimeter):30.00 inches Hg (1016.0 mb) [Sea level pressure: 1016.2 mb]
Winds:from the SSE (150 degrees) at 6 MPH (5 knots; 2.6 m/s)
Visibility:10 or more sm (16+ km)
Ceiling:3600 feet AGL
Clouds: overcast cloud deck at 3600 feet AGL
QC Flag:automated observation with no human augmentation
Text:KCVO 240756Z AUTO 00000KT 10SM OVC036 04/02 A3002 RMK AO2 SLP170 T00390022 400781039
Temperature: 3.9°C ( 39°F)
Dewpoint: 2.2°C ( 36°F) [RH = 89%]
Pressure (altimeter):30.02 inches Hg (1016.7 mb) [Sea level pressure: 1017.0 mb]
Winds:calm
Visibility:10 or more sm (16+ km)
Ceiling:3600 feet AGL
Clouds: overcast cloud deck at 3600 feet AGL
QC Flag:automated observation with no human augmentation
Text:KCVO 240656Z AUTO 00000KT 10SM OVC036 04/03 A3004 RMK AO2 SLP175 T00390028
Temperature: 3.9°C ( 39°F)
Dewpoint: 2.8°C ( 37°F) [RH = 93%]
Pressure (altimeter):30.04 inches Hg (1017.4 mb) [Sea level pressure: 1017.5 mb]
Winds:calm
Visibility:10 or more sm (16+ km)
Ceiling:3600 feet AGL
Clouds: overcast cloud deck at 3600 feet AGL
QC Flag:automated observation with no human augmentation
Text:KCVO 240556Z AUTO 00000KT 10SM OVC038 04/03 A3006 RMK AO2 SLP180 T00390028 10078 20028 56021
Temperature: 3.9°C ( 39°F)
Dewpoint: 2.8°C ( 37°F) [RH = 93%]
Pressure (altimeter):30.06 inches Hg (1018.0 mb) [Sea level pressure: 1018.0 mb]
Winds:calm
Visibility:10 or more sm (16+ km)
Ceiling:3800 feet AGL
Clouds: overcast cloud deck at 3800 feet AGL
QC Flag:automated observation with no human augmentation
Text:KCVO 240456Z AUTO 15005KT 10SM OVC038 04/03 A3006 RMK AO2 SLP182 T00390028
Temperature: 3.9°C ( 39°F)
Dewpoint: 2.8°C ( 37°F) [RH = 93%]
Pressure (altimeter):30.06 inches Hg (1018.0 mb) [Sea level pressure: 1018.2 mb]
Winds:from the SSE (150 degrees) at 6 MPH (5 knots; 2.6 m/s)
Visibility:10 or more sm (16+ km)
Ceiling:3800 feet AGL
Clouds: overcast cloud deck at 3800 feet AGL
QC Flag:automated observation with no human augmentation
Text:KCVO 240356Z AUTO 27003KT 10SM OVC036 04/02 A3010 RMK AO2 SLP196 T00390022
Temperature: 3.9°C ( 39°F)
Dewpoint: 2.2°C ( 36°F) [RH = 89%]
Pressure (altimeter):30.10 inches Hg (1019.4 mb) [Sea level pressure: 1019.6 mb]
Winds:from the W (270 degrees) at 3 MPH (3 knots; 1.5 m/s)
Visibility:10 or more sm (16+ km)
Ceiling:3600 feet AGL
Clouds: overcast cloud deck at 3600 feet AGL
QC Flag:automated observation with no human augmentation
Text:KCVO 240256Z AUTO 00000KT 10SM OVC036 05/02 A3012 RMK AO2 SLP202 T00500017 58007
Temperature: 5.0°C ( 41°F)
Dewpoint: 1.7°C ( 35°F) [RH = 79%]
Pressure (altimeter):30.12 inches Hg (1020.1 mb) [Sea level pressure: 1020.2 mb]
Winds:calm
Visibility:10 or more sm (16+ km)
Ceiling:3600 feet AGL
Clouds: overcast cloud deck at 3600 feet AGL
QC Flag:automated observation with no human augmentation
Text:KCVO 240156Z AUTO 25003KT 10SM BKN036 05/02 A3013 RMK AO2 SLP206 T00500017
Temperature: 5.0°C ( 41°F)
Dewpoint: 1.7°C ( 35°F) [RH = 79%]
Pressure (altimeter):30.13 inches Hg (1020.4 mb) [Sea level pressure: 1020.6 mb]
Winds:from the WSW (250 degrees) at 3 MPH (3 knots; 1.5 m/s)
Visibility:10 or more sm (16+ km)
Ceiling:3600 feet AGL
Clouds: broken clouds at 3600 feet AGL
QC Flag:automated observation with no human augmentation
Text:KCVO 240056Z AUTO 00000KT 10SM OVC040 07/02 A3013 RMK AO2 SLP205 T00720022
Temperature: 7.2°C ( 45°F)
Dewpoint: 2.2°C ( 36°F) [RH = 70%]
Pressure (altimeter):30.13 inches Hg (1020.4 mb) [Sea level pressure: 1020.5 mb]
Winds:calm
Visibility:10 or more sm (16+ km)
Ceiling:4000 feet AGL
Clouds: overcast cloud deck at 4000 feet AGL
QC Flag:automated observation with no human augmentation
Text:KCVO 232356Z AUTO 00000KT 10SM CLR 08/02 A3014 RMK AO2 SLP208 T00780017 10078 20017 56008
Temperature: 7.8°C ( 46°F)
Dewpoint: 1.7°C ( 35°F) [RH = 65%]
Pressure (altimeter):30.14 inches Hg (1020.7 mb) [Sea level pressure: 1020.8 mb]
Winds:calm
Visibility:10 or more sm (16+ km)
Ceiling:at least 12,000 feet AGL
Clouds:sky clear below 12,000 feet AGL
QC Flag:automated observation with no human augmentation
Text:KCVO 232256Z AUTO 00000KT 10SM CLR 08/02 A3014 RMK AO2 SLP209 T00780022
Temperature: 7.8°C ( 46°F)
Dewpoint: 2.2°C ( 36°F) [RH = 68%]
Pressure (altimeter):30.14 inches Hg (1020.7 mb) [Sea level pressure: 1020.9 mb]
Winds:calm
Visibility:10 or more sm (16+ km)
Ceiling:at least 12,000 feet AGL
Clouds:sky clear below 12,000 feet AGL
QC Flag:automated observation with no human augmentation
Text:KCVO 232156Z AUTO 10003KT 10SM CLR 07/02 A3014 RMK AO2 SLP209 T00720017
Temperature: 7.2°C ( 45°F)
Dewpoint: 1.7°C ( 35°F) [RH = 68%]
Pressure (altimeter):30.14 inches Hg (1020.7 mb) [Sea level pressure: 1020.9 mb]
Winds:from the E (100 degrees) at 3 MPH (3 knots; 1.5 m/s)
Visibility:10 or more sm (16+ km)
Ceiling:at least 12,000 feet AGL
Clouds:sky clear below 12,000 feet AGL
QC Flag:automated observation with no human augmentation
Text:KCVO 232056Z AUTO 13003KT 10SM CLR 06/02 A3016 RMK AO2 SLP216 T00610017 58013
Temperature: 6.1°C ( 43°F)
Dewpoint: 1.7°C ( 35°F) [RH = 73%]
Pressure (altimeter):30.16 inches Hg (1021.4 mb) [Sea level pressure: 1021.6 mb]
Winds:from the SE (130 degrees) at 3 MPH (3 knots; 1.5 m/s)
Visibility:10 or more sm (16+ km)
Ceiling:at least 12,000 feet AGL
Clouds:sky clear below 12,000 feet AGL
QC Flag:automated observation with no human augmentation
Text:KCVO 231956Z AUTO 15004KT 10SM CLR 05/01 A3018 RMK AO2 SLP221 T00500011
Temperature: 5.0°C ( 41°F)
Dewpoint: 1.1°C ( 34°F) [RH = 76%]
Pressure (altimeter):30.18 inches Hg (1022.1 mb) [Sea level pressure: 1022.1 mb]
Winds:from the SSE (150 degrees) at 5 MPH (4 knots; 2.1 m/s)
Visibility:10 or more sm (16+ km)
Ceiling:at least 12,000 feet AGL
Clouds:sky clear below 12,000 feet AGL
QC Flag:automated observation with no human augmentation
Text:KCVO 231856Z AUTO 13003KT 10SM CLR 03/01 A3019 RMK AO2 SLP227 T00330011
Temperature: 3.3°C ( 38°F)
Dewpoint: 1.1°C ( 34°F) [RH = 85%]
Pressure (altimeter):30.19 inches Hg (1022.4 mb) [Sea level pressure: 1022.7 mb]
Winds:from the SE (130 degrees) at 3 MPH (3 knots; 1.5 m/s)
Visibility:10 or more sm (16+ km)
Ceiling:at least 12,000 feet AGL
Clouds:sky clear below 12,000 feet AGL
QC Flag:automated observation with no human augmentation
Text:KCVO 231756Z AUTO 00000KT 10SM CLR 04/01 A3020 RMK AO2 SLP228 T00390011 10039 21039 53013
Temperature: 3.9°C ( 39°F)
Dewpoint: 1.1°C ( 34°F) [RH = 82%]
Pressure (altimeter):30.20 inches Hg (1022.8 mb) [Sea level pressure: 1022.8 mb]
Winds:calm
Visibility:10 or more sm (16+ km)
Ceiling:at least 12,000 feet AGL
Clouds:sky clear below 12,000 feet AGL
QC Flag:automated observation with no human augmentation
Text:KCVO 231656Z AUTO 00000KT 10SM CLR 01/01 A3018 RMK AO2 SLP224 T00110006 FZRANO
Temperature: 1.1°C ( 34°F)
Dewpoint: 0.6°C ( 33°F) [RH = 96%]
Pressure (altimeter):30.18 inches Hg (1022.1 mb) [Sea level pressure: 1022.4 mb]
Winds:calm
Visibility:10 or more sm (16+ km)
Ceiling:at least 12,000 feet AGL
Clouds:sky clear below 12,000 feet AGL
QC Flag:automated observation with no human augmentation
Text:KCVO 231556Z AUTO 00000KT 10SM CLR M03/M03 A3017 RMK AO2 SLP220 T10331033 FZRANO
Temperature: -3.3°C ( 26°F)
Dewpoint: -3.3°C ( 26°F) [RH = 100%]
Pressure (altimeter):30.17 inches Hg (1021.8 mb) [Sea level pressure: 1022.0 mb]
Winds:calm
Visibility:10 or more sm (16+ km)
Ceiling:at least 12,000 feet AGL
Clouds:sky clear below 12,000 feet AGL
QC Flag:automated observation with no human augmentation
Text:KCVO 231456Z AUTO 00000KT 10SM CLR M03/M03 A3016 RMK AO2 SLP216 T10281033 53013 FZRANO
Temperature: -2.8°C ( 27°F)
Dewpoint: -3.3°C ( 26°F) [RH = 96%]
Pressure (altimeter):30.16 inches Hg (1021.4 mb) [Sea level pressure: 1021.6 mb]
Winds:calm
Visibility:10 or more sm (16+ km)
Ceiling:at least 12,000 feet AGL
Clouds:sky clear below 12,000 feet AGL
QC Flag:automated observation with no human augmentation
Text:KCVO 231356Z AUTO 00000KT 10SM CLR M03/M03 A3014 RMK AO2 SLP208 T10331033 FZRANO
Temperature: -3.3°C ( 26°F)
Dewpoint: -3.3°C ( 26°F) [RH = 100%]
Pressure (altimeter):30.14 inches Hg (1020.7 mb) [Sea level pressure: 1020.8 mb]
Winds:calm
Visibility:10 or more sm (16+ km)
Ceiling:at least 12,000 feet AGL
Clouds:sky clear below 12,000 feet AGL
QC Flag:automated observation with no human augmentation
Text:KCVO 231256Z AUTO 00000KT 10SM CLR M03/M03 A3013 RMK AO2 SLP205 T10281028 FZRANO
Temperature: -2.8°C ( 27°F)
Dewpoint: -2.8°C ( 27°F) [RH = 100%]
Pressure (altimeter):30.13 inches Hg (1020.4 mb) [Sea level pressure: 1020.5 mb]
Winds:calm
Visibility:10 or more sm (16+ km)
Ceiling:at least 12,000 feet AGL
Clouds:sky clear below 12,000 feet AGL
QC Flag:automated observation with no human augmentation